createdAt,value
2022-10-25T00:00:12.453Z,30.00
2022-10-25T00:01:23.533Z,27.30
2022-10-25T00:02:26.379Z,28.10
2022-10-25T00:03:28.538Z,25.90
2022-10-25T00:04:31.732Z,28.40
2022-10-25T00:05:34.065Z,28.40
2022-10-25T00:06:37.683Z,27.00
2022-10-25T00:07:40.031Z,27.50
2022-10-25T00:08:44.208Z,28.70
2022-10-25T00:09:46.431Z,21.50
2022-10-25T00:10:48.647Z,28.30
2022-10-25T00:11:50.746Z,25.30
2022-10-25T00:12:52.848Z,26.10
2022-10-25T00:13:57.228Z,24.00
2022-10-25T00:15:03.137Z,24.40
2022-10-25T00:16:05.795Z,18.80
2022-10-25T00:17:08.405Z,26.60
2022-10-25T00:18:10.363Z,24.67
2022-10-25T00:19:12.743Z,25.50
2022-10-25T00:20:15.183Z,24.40
2022-10-25T00:21:18.637Z,23.30
2022-10-25T00:22:20.793Z,27.70
2022-10-25T00:23:23.983Z,25.60
2022-10-25T00:24:27.343Z,26.70
2022-10-25T00:25:29.550Z,23.50
2022-10-25T00:26:32.576Z,28.20
2022-10-25T00:27:35.547Z,24.00
2022-10-25T00:28:38.393Z,23.60
2022-10-25T00:29:40.464Z,25.73
2022-10-25T00:30:42.708Z,25.40
2022-10-25T00:31:45.073Z,22.60
2022-10-25T00:32:48.659Z,26.50
2022-10-25T00:33:51.134Z,25.80
2022-10-25T00:34:53.262Z,23.30
2022-10-25T00:35:55.278Z,25.40
2022-10-25T00:36:58.203Z,23.91
2022-10-25T00:38:00.725Z,22.80
2022-10-25T00:39:03.084Z,26.40
2022-10-25T00:40:09.355Z,23.80
2022-10-25T00:41:12.734Z,21.00
2022-10-25T00:42:25.451Z,23.10
2022-10-25T00:43:37.653Z,21.90
2022-10-25T00:45:58.744Z,25.40
2022-10-25T00:47:23.731Z,25.20
2022-10-25T00:48:25.866Z,23.80
2022-10-25T00:49:29.077Z,23.20
2022-10-25T00:50:37.333Z,25.30
2022-10-25T00:53:14.033Z,24.00
2022-10-25T00:54:18.560Z,25.80
2022-10-25T00:55:22.018Z,23.70
2022-10-25T00:56:28.943Z,24.10
2022-10-25T00:57:40.895Z,24.80
2022-10-25T00:58:45.158Z,23.70
2022-10-25T00:59:47.976Z,24.90
2022-10-25T01:00:50.248Z,23.60
2022-10-25T01:01:55.469Z,22.00
2022-10-25T01:02:57.845Z,23.80
2022-10-25T01:04:02.140Z,24.60
2022-10-25T01:05:05.059Z,27.00
2022-10-25T01:06:14.026Z,23.10
2022-10-25T01:07:16.208Z,25.70
2022-10-25T01:08:18.330Z,24.60
2022-10-25T01:09:25.981Z,22.80
2022-10-25T01:10:28.573Z,16.60
2022-10-25T01:11:30.581Z,24.00
2022-10-25T01:12:33.299Z,23.30
2022-10-25T01:13:35.795Z,21.40
2022-10-25T01:14:40.671Z,22.30
2022-10-25T01:16:04.501Z,23.40
2022-10-25T01:17:43.147Z,26.50
2022-10-25T01:20:49.857Z,21.20
2022-10-25T01:23:18.474Z,23.90
2022-10-25T01:25:59.771Z,20.00
2022-10-25T01:27:23.412Z,20.80
2022-10-25T01:28:33.069Z,21.40
2022-10-25T01:30:00.363Z,21.70
2022-10-25T01:31:19.429Z,21.80
2022-10-25T01:32:24.277Z,21.20
2022-10-25T01:35:00.770Z,22.30
2022-10-25T01:36:15.609Z,21.50
2022-10-25T01:37:21.635Z,22.90
2022-10-25T01:38:30.818Z,22.30
2022-10-25T01:39:56.102Z,20.70
2022-10-25T01:41:08.816Z,24.20
2022-10-25T01:42:17.588Z,20.30
2022-10-25T01:43:55.754Z,20.60
2022-10-25T01:45:17.349Z,22.70
2022-10-25T01:46:49.013Z,22.50
2022-10-25T01:47:59.966Z,20.30
2022-10-25T01:49:07.511Z,23.50
2022-10-25T01:50:24.490Z,18.80
2022-10-25T01:51:27.606Z,21.20
2022-10-25T01:52:29.737Z,22.30
2022-10-25T01:53:35.093Z,19.60
2022-10-25T01:54:38.023Z,20.80
2022-10-25T01:55:52.319Z,23.27
2022-10-25T01:57:16.703Z,21.90
2022-10-25T01:58:52.116Z,23.50
2022-10-25T02:00:12.014Z,20.90
2022-10-25T02:01:39.295Z,22.30
2022-10-25T02:03:15.884Z,22.50
2022-10-25T02:04:34.696Z,21.20
2022-10-25T02:05:55.823Z,22.80
2022-10-25T02:08:48.455Z,25.20
2022-10-25T02:10:03.536Z,24.70
2022-10-25T02:11:15.557Z,20.90
2022-10-25T02:12:21.531Z,21.70
2022-10-25T02:13:27.910Z,25.60
2022-10-25T02:15:56.560Z,22.60
2022-10-25T02:17:14.788Z,23.40
2022-10-25T02:18:20.589Z,21.70
2022-10-25T02:20:45.907Z,22.70
2022-10-25T02:21:47.170Z,25.40
2022-10-25T02:22:49.821Z,21.70
2022-10-25T02:23:52.270Z,25.40
2022-10-25T02:24:55.005Z,22.50
2022-10-25T02:25:57.054Z,22.50
2022-10-25T02:27:00.444Z,23.80
2022-10-25T02:28:04.814Z,22.40
2022-10-25T02:29:06.965Z,23.80
2022-10-25T02:30:10.571Z,26.18
2022-10-25T02:31:15.084Z,21.55
2022-10-25T02:32:17.235Z,24.40
2022-10-25T02:33:19.339Z,24.60
2022-10-25T02:34:21.439Z,23.90
2022-10-25T02:35:23.923Z,22.00
2022-10-25T02:36:26.135Z,23.10
2022-10-25T02:37:28.221Z,23.00
2022-10-25T02:38:30.234Z,19.90
2022-10-25T02:39:32.367Z,22.30
2022-10-25T02:40:34.873Z,25.10
2022-10-25T02:41:36.976Z,24.00
2022-10-25T02:42:39.074Z,23.40
2022-10-25T02:43:41.920Z,19.00
2022-10-25T02:44:45.095Z,22.60
2022-10-25T02:45:47.147Z,21.80
2022-10-25T02:46:49.369Z,13.30
2022-10-25T02:47:52.954Z,22.40
2022-10-25T02:48:54.969Z,22.30
2022-10-25T02:49:57.303Z,23.90
2022-10-25T02:50:59.423Z,23.00
2022-10-25T02:52:01.847Z,21.40
2022-10-25T02:53:03.862Z,19.70
2022-10-25T02:54:06.000Z,22.80
2022-10-25T02:55:08.433Z,26.20
2022-10-25T02:57:25.219Z,22.90
2022-10-25T02:58:29.892Z,21.50
2022-10-25T02:59:32.246Z,24.70
2022-10-25T03:00:35.550Z,24.20
2022-10-25T03:01:38.700Z,24.60
2022-10-25T03:02:40.910Z,27.40
2022-10-25T03:03:44.194Z,25.60
2022-10-25T03:04:47.547Z,24.60
2022-10-25T03:05:49.569Z,27.30
2022-10-25T03:06:52.138Z,24.40
2022-10-25T03:07:54.257Z,26.80
2022-10-25T03:08:58.092Z,25.60
2022-10-25T03:10:00.271Z,23.73
2022-10-25T03:11:02.677Z,25.00
2022-10-25T03:12:04.889Z,27.40
2022-10-25T03:13:07.268Z,28.00
2022-10-25T03:14:09.343Z,27.10
2022-10-25T03:15:11.769Z,25.10
2022-10-25T03:16:14.238Z,28.00
2022-10-25T03:17:16.242Z,23.20
2022-10-25T03:18:19.455Z,26.00
2022-10-25T03:19:22.806Z,26.00
2022-10-25T03:20:25.042Z,24.80
2022-10-25T03:21:27.028Z,22.10
2022-10-25T03:22:29.119Z,24.60
2022-10-25T03:23:31.808Z,23.90
2022-10-25T03:24:33.957Z,24.00
2022-10-25T03:25:36.181Z,24.70
2022-10-25T03:26:38.513Z,25.70
2022-10-25T03:27:40.746Z,23.60
2022-10-25T03:28:42.826Z,24.00
2022-10-25T03:29:44.950Z,23.30
2022-10-25T03:30:49.030Z,22.50
2022-10-25T03:31:51.914Z,22.10
2022-10-25T03:32:54.070Z,25.18
2022-10-25T03:33:57.331Z,24.30
2022-10-25T03:35:00.987Z,24.20
2022-10-25T03:36:04.182Z,21.30
2022-10-25T03:37:07.126Z,21.60
2022-10-25T03:38:10.199Z,23.10
2022-10-25T03:39:12.642Z,23.00
2022-10-25T03:40:16.132Z,24.00
2022-10-25T03:41:18.353Z,21.10
2022-10-25T03:42:21.514Z,19.40
2022-10-25T03:44:25.795Z,22.30
2022-10-25T03:45:28.253Z,21.00
2022-10-25T03:46:30.465Z,26.70
2022-10-25T03:47:32.371Z,24.56
2022-10-25T03:48:34.503Z,19.30
2022-10-25T03:49:36.997Z,23.00
2022-10-25T03:50:39.238Z,23.10
2022-10-25T03:51:41.323Z,22.56
2022-10-25T03:52:43.612Z,20.50
2022-10-25T03:53:46.131Z,21.80
2022-10-25T03:54:48.101Z,22.60
2022-10-25T03:55:51.415Z,18.18
2022-10-25T03:56:53.991Z,18.20
2022-10-25T03:57:56.107Z,22.00
2022-10-25T03:58:58.776Z,21.40
2022-10-25T04:00:00.808Z,23.30
2022-10-25T04:01:03.101Z,20.00
2022-10-25T04:02:05.412Z,22.50
2022-10-25T04:03:08.258Z,20.80
2022-10-25T04:04:10.449Z,19.55
2022-10-25T04:05:12.657Z,24.80
2022-10-25T04:06:15.268Z,23.90
2022-10-25T04:07:17.298Z,21.33
2022-10-25T04:08:19.401Z,22.30
2022-10-25T04:09:21.495Z,20.80
2022-10-25T04:10:25.659Z,22.30
2022-10-25T04:11:27.931Z,23.70
2022-10-25T04:12:29.961Z,22.30
2022-10-25T04:13:32.076Z,20.80
2022-10-25T04:14:34.170Z,22.30
2022-10-25T04:15:37.353Z,21.90
2022-10-25T04:16:39.609Z,21.40
2022-10-25T04:17:42.738Z,19.50
2022-10-25T04:18:44.913Z,20.80
2022-10-25T04:19:47.021Z,23.30
2022-10-25T04:20:49.260Z,23.90
2022-10-25T04:21:52.662Z,18.90
2022-10-25T04:22:55.626Z,18.00
2022-10-25T04:23:59.374Z,22.00
2022-10-25T04:25:01.828Z,21.50
2022-10-25T04:26:04.152Z,21.30
2022-10-25T04:27:06.354Z,22.80
2022-10-25T04:28:08.379Z,21.20
2022-10-25T04:29:10.666Z,16.70
2022-10-25T04:30:13.535Z,18.90
2022-10-25T04:31:15.640Z,21.90
2022-10-25T04:33:19.813Z,21.70
2022-10-25T04:34:22.464Z,20.70
2022-10-25T04:35:24.709Z,17.30
2022-10-25T04:36:28.307Z,19.30
2022-10-25T04:37:30.650Z,25.10
2022-10-25T04:38:33.251Z,22.00
2022-10-25T04:39:35.417Z,24.50
2022-10-25T04:40:38.793Z,23.90
2022-10-25T04:41:43.079Z,26.90
2022-10-25T04:42:45.558Z,28.90
2022-10-25T04:43:48.047Z,30.73
2022-10-25T04:44:50.819Z,30.80
2022-10-25T04:45:53.243Z,38.40
2022-10-25T04:46:55.455Z,40.70
2022-10-25T04:47:57.432Z,37.56
2022-10-25T04:49:00.576Z,46.44
2022-10-25T04:50:03.010Z,44.70
2022-10-25T04:51:05.667Z,39.60
2022-10-25T04:52:08.252Z,43.50
2022-10-25T04:53:10.223Z,40.67
2022-10-25T04:54:12.418Z,46.33
2022-10-25T04:55:14.796Z,36.60
2022-10-25T04:56:18.523Z,39.36
2022-10-25T04:57:20.692Z,43.60
2022-10-25T04:58:27.474Z,46.60
2022-10-25T04:59:29.719Z,44.40
2022-10-25T05:00:32.116Z,46.60
2022-10-25T05:01:35.084Z,45.90
2022-10-25T05:02:37.687Z,43.30
2022-10-25T05:03:40.877Z,46.20
2022-10-25T05:04:43.139Z,36.64
2022-10-25T05:05:45.404Z,40.20
2022-10-25T05:06:48.809Z,46.70
2022-10-25T05:07:51.243Z,44.40
2022-10-25T05:08:53.922Z,42.00
2022-10-25T05:09:56.035Z,43.10
2022-10-25T05:10:58.131Z,44.30
2022-10-25T05:12:01.252Z,46.30
2022-10-25T05:13:03.879Z,43.50
2022-10-25T05:14:05.977Z,46.20
2022-10-25T05:15:08.858Z,44.56
2022-10-25T05:17:45.271Z,46.00
2022-10-25T05:18:48.585Z,40.10
2022-10-25T05:19:50.755Z,43.70
2022-10-25T05:20:55.277Z,39.50
2022-10-25T05:21:57.463Z,39.60
2022-10-25T05:22:59.637Z,44.30
2022-10-25T05:24:02.357Z,46.10
2022-10-25T05:25:05.812Z,38.30
2022-10-25T05:26:16.354Z,40.10
2022-10-25T05:27:18.549Z,43.50
2022-10-25T05:28:20.570Z,41.40
2022-10-25T05:29:24.016Z,39.50
2022-10-25T05:30:26.190Z,40.91
2022-10-25T05:31:29.236Z,40.70
2022-10-25T05:32:31.393Z,39.36
2022-10-25T05:33:34.129Z,42.50
2022-10-25T05:34:36.632Z,40.70
2022-10-25T05:35:38.868Z,37.50
2022-10-25T05:36:42.365Z,41.60
2022-10-25T05:37:44.432Z,37.00
2022-10-25T05:38:46.658Z,32.90
2022-10-25T05:39:48.766Z,40.00
2022-10-25T05:42:00.901Z,37.40
2022-10-25T05:43:03.690Z,39.40
2022-10-25T05:44:05.822Z,31.10
2022-10-25T05:45:10.368Z,34.40
2022-10-25T05:46:15.645Z,35.60
2022-10-25T05:47:18.039Z,37.80
2022-10-25T05:48:20.778Z,35.10
2022-10-25T05:49:24.113Z,37.20
2022-10-25T05:50:26.472Z,37.00
2022-10-25T05:51:37.467Z,39.20
2022-10-25T05:52:34.089Z,38.60
2022-10-25T05:53:36.167Z,37.00
2022-10-25T05:54:39.421Z,37.50
2022-10-25T05:55:42.072Z,34.40
2022-10-25T05:56:44.376Z,35.91
2022-10-25T05:57:52.284Z,37.00
2022-10-25T05:58:54.717Z,34.80
2022-10-25T05:59:57.433Z,38.10
2022-10-25T06:01:00.231Z,31.18
2022-10-25T06:02:02.477Z,32.30
2022-10-25T06:03:04.786Z,39.40
2022-10-25T06:04:08.243Z,36.80
2022-10-25T06:05:10.888Z,37.30
2022-10-25T06:06:14.028Z,31.90
2022-10-25T06:07:17.180Z,34.70
2022-10-25T06:08:19.691Z,36.10
2022-10-25T06:09:22.088Z,30.40
2022-10-25T06:10:27.231Z,34.90
2022-10-25T06:11:29.601Z,30.30
2022-10-25T06:12:31.659Z,39.00
2022-10-25T06:13:35.257Z,29.30
2022-10-25T06:14:37.428Z,34.00
2022-10-25T06:15:39.545Z,39.70
2022-10-25T06:16:41.667Z,35.00
2022-10-25T06:17:43.761Z,32.30
2022-10-25T06:18:45.969Z,29.67
2022-10-25T06:19:49.316Z,38.27
2022-10-25T06:20:51.812Z,34.00
2022-10-25T06:21:54.291Z,33.60
2022-10-25T06:22:56.551Z,28.60
2022-10-25T06:23:59.554Z,33.10
2022-10-25T06:25:01.789Z,33.80
2022-10-25T06:26:08.561Z,31.60
2022-10-25T06:27:10.750Z,32.10
2022-10-25T06:28:12.842Z,35.10
2022-10-25T06:29:15.099Z,30.30
2022-10-25T06:30:17.765Z,32.90
2022-10-25T06:31:20.678Z,35.60
2022-10-25T06:32:23.409Z,34.10
2022-10-25T06:33:28.104Z,28.70
2022-10-25T06:34:30.555Z,36.10
2022-10-25T06:35:32.655Z,32.80
2022-10-25T06:36:35.673Z,34.00
2022-10-25T06:37:38.492Z,25.45
2022-10-25T06:38:40.572Z,34.20
2022-10-25T06:39:43.671Z,31.30
2022-10-25T06:40:47.104Z,32.91
2022-10-25T06:41:50.391Z,35.00
2022-10-25T06:42:55.557Z,28.80
2022-10-25T06:44:02.406Z,35.30
2022-10-25T06:45:04.387Z,34.50
2022-10-25T06:46:22.213Z,32.00
2022-10-25T06:47:25.525Z,32.30
2022-10-25T06:48:29.540Z,29.10
2022-10-25T06:49:31.725Z,31.50
2022-10-25T06:50:34.172Z,31.90
2022-10-25T06:51:36.283Z,29.20
2022-10-25T06:52:38.487Z,30.00
2022-10-25T06:53:40.602Z,29.50
2022-10-25T06:54:44.118Z,32.27
2022-10-25T06:55:46.236Z,23.20
2022-10-25T06:56:48.432Z,30.30
2022-10-25T06:57:50.503Z,33.00
2022-10-25T06:58:53.701Z,33.20
2022-10-25T06:59:55.989Z,34.30
2022-10-25T07:01:07.318Z,31.30
2022-10-25T07:02:09.760Z,28.10
2022-10-25T07:03:12.092Z,33.70
2022-10-25T07:04:15.424Z,29.10
2022-10-25T07:05:17.608Z,32.90
2022-10-25T07:06:25.965Z,32.20
2022-10-25T07:07:28.265Z,31.60
2022-10-25T07:08:30.368Z,31.20
2022-10-25T07:09:32.472Z,32.90
2022-10-25T07:10:34.880Z,32.00
2022-10-25T07:11:38.707Z,28.70
2022-10-25T07:12:41.444Z,24.80
2022-10-25T07:13:43.656Z,34.82
2022-10-25T07:14:46.391Z,33.10
2022-10-25T07:15:48.935Z,31.90
2022-10-25T07:16:53.954Z,25.10
2022-10-25T07:17:56.610Z,33.30
2022-10-25T07:19:00.110Z,31.30
2022-10-25T07:20:02.752Z,30.70
2022-10-25T07:21:12.590Z,33.10
2022-10-25T07:22:14.875Z,30.80
2022-10-25T07:23:18.099Z,32.30
2022-10-25T07:24:21.490Z,31.10
2022-10-25T07:25:25.147Z,30.90
2022-10-25T07:26:33.057Z,27.20
2022-10-25T07:27:35.275Z,27.30
2022-10-25T07:28:37.386Z,34.70
2022-10-25T07:29:39.605Z,30.50
2022-10-25T07:30:45.570Z,29.70
2022-10-25T07:31:49.072Z,32.80
2022-10-25T07:32:51.332Z,30.70
2022-10-25T07:33:53.798Z,26.40
2022-10-25T07:34:56.016Z,31.20
2022-10-25T07:36:09.595Z,29.30
2022-10-25T07:37:03.789Z,31.00
2022-10-25T07:39:26.778Z,31.30
2022-10-25T07:40:29.707Z,29.80
2022-10-25T07:41:33.060Z,26.80
2022-10-25T07:42:35.363Z,29.00
2022-10-25T07:43:39.638Z,28.10
2022-10-25T07:44:42.609Z,32.10
2022-10-25T07:45:45.926Z,29.70
2022-10-25T07:46:48.187Z,31.10
2022-10-25T07:47:51.644Z,29.80
2022-10-25T07:48:54.494Z,28.70
2022-10-25T07:49:56.769Z,27.40
2022-10-25T07:51:07.427Z,30.80
2022-10-25T07:52:10.095Z,27.30
2022-10-25T07:53:12.313Z,27.60
2022-10-25T07:54:15.643Z,27.20
2022-10-25T07:55:19.042Z,29.20
2022-10-25T07:56:23.711Z,28.40
2022-10-25T07:57:26.687Z,24.30
2022-10-25T07:58:29.513Z,32.09
2022-10-25T07:59:32.091Z,29.40
2022-10-25T08:00:35.104Z,27.09
2022-10-25T08:01:37.466Z,29.20
2022-10-25T08:02:39.776Z,24.60
2022-10-25T08:03:42.615Z,26.70
2022-10-25T08:04:45.728Z,27.60
2022-10-25T08:05:50.097Z,28.20
2022-10-25T08:06:52.867Z,27.30
2022-10-25T08:07:55.141Z,29.80
2022-10-25T08:09:02.442Z,28.60
2022-10-25T08:10:02.386Z,28.40
2022-10-25T08:11:05.171Z,26.70
2022-10-25T08:12:08.589Z,23.36
2022-10-25T08:13:11.793Z,27.70
2022-10-25T08:14:14.253Z,28.00
2022-10-25T08:15:17.933Z,24.70
2022-10-25T08:16:22.725Z,30.60
2022-10-25T08:17:26.946Z,29.80
2022-10-25T08:18:31.766Z,27.60
2022-10-25T08:19:35.158Z,26.60
2022-10-25T08:21:01.150Z,29.80
2022-10-25T08:21:41.675Z,29.60
2022-10-25T08:22:44.940Z,32.10
2022-10-25T08:23:47.755Z,25.70
2022-10-25T08:24:49.736Z,30.30
2022-10-25T08:25:52.644Z,29.27
2022-10-25T08:26:54.857Z,37.30
2022-10-25T08:27:56.986Z,57.90
2022-10-25T08:28:59.739Z,63.90
2022-10-25T08:30:03.532Z,73.50
2022-10-25T08:31:10.065Z,74.00
2022-10-25T08:32:13.014Z,79.10
2022-10-25T08:33:15.985Z,80.30
2022-10-25T08:34:18.030Z,81.78
2022-10-25T08:35:20.589Z,79.30
2022-10-25T08:36:24.456Z,81.30
2022-10-25T08:37:26.598Z,73.00
2022-10-25T08:38:30.133Z,65.00
2022-10-25T08:39:44.473Z,73.40
2022-10-25T08:41:19.109Z,72.90
2022-10-25T08:45:23.048Z,71.70
2022-10-25T08:46:31.322Z,72.00
2022-10-25T08:47:36.270Z,67.00
2022-10-25T08:50:02.874Z,70.40
2022-10-25T08:52:32.394Z,67.00
2022-10-25T08:53:38.187Z,56.80
2022-10-25T08:54:41.411Z,62.60
2022-10-25T08:55:58.865Z,60.50
2022-10-25T08:57:03.593Z,61.10
2022-10-25T08:57:53.321Z,61.30
2022-10-25T08:58:57.461Z,63.00
2022-10-25T09:00:05.785Z,62.60
2022-10-25T09:01:21.877Z,62.50
2022-10-25T09:02:40.242Z,58.20
2022-10-25T09:03:42.864Z,56.10
2022-10-25T09:04:45.133Z,56.60
2022-10-25T09:06:24.991Z,54.60
2022-10-25T09:09:04.110Z,53.20
2022-10-25T09:10:19.264Z,53.30
2022-10-25T09:11:44.321Z,56.40
2022-10-25T09:13:10.912Z,54.90
2022-10-25T09:14:51.495Z,54.10
2022-10-25T09:16:20.589Z,54.70
2022-10-25T09:17:24.867Z,59.50
2022-10-25T09:18:53.122Z,57.60
2022-10-25T09:20:06.502Z,56.90
2022-10-25T09:21:15.629Z,56.70
2022-10-25T09:22:26.438Z,56.10
2022-10-25T09:23:30.005Z,56.80
2022-10-25T09:26:22.613Z,51.80
2022-10-25T09:27:36.636Z,52.40
2022-10-25T09:28:42.550Z,52.80
2022-10-25T09:30:07.487Z,47.90
2022-10-25T09:31:12.453Z,49.70
2022-10-25T09:32:23.806Z,43.30
2022-10-25T09:33:27.075Z,47.40
2022-10-25T09:34:30.987Z,49.20
2022-10-25T09:35:55.497Z,46.20
2022-10-25T09:37:14.472Z,45.40
2022-10-25T09:38:20.851Z,45.50
2022-10-25T09:41:04.010Z,42.90
2022-10-25T09:42:06.944Z,40.30
2022-10-25T09:43:12.505Z,42.36
2022-10-25T09:44:37.360Z,39.50
2022-10-25T09:45:47.838Z,40.00
2022-10-25T09:47:09.375Z,42.30
2022-10-25T09:50:02.866Z,34.60
2022-10-25T09:52:38.992Z,31.80
2022-10-25T09:53:41.666Z,34.70
2022-10-25T09:54:47.663Z,32.20
2022-10-25T09:55:54.407Z,30.60
2022-10-25T09:56:56.657Z,33.00
2022-10-25T09:57:58.815Z,31.60
2022-10-25T09:59:02.053Z,28.10
2022-10-25T10:00:06.918Z,28.50
2022-10-25T10:01:20.588Z,26.10
2022-10-25T10:02:25.766Z,26.00
2022-10-25T10:03:30.012Z,28.10
2022-10-25T10:04:36.293Z,27.10
2022-10-25T10:06:57.412Z,26.40
2022-10-25T10:08:01.186Z,24.00
2022-10-25T10:09:04.901Z,24.20
2022-10-25T10:10:10.500Z,26.70
2022-10-25T10:11:14.877Z,28.40
2022-10-25T10:13:44.348Z,26.20
2022-10-25T10:14:58.425Z,24.50
2022-10-25T10:17:16.197Z,26.20
2022-10-25T10:18:33.975Z,26.40
2022-10-25T10:19:37.212Z,24.40
2022-10-25T10:20:40.512Z,27.90
2022-10-25T10:21:44.018Z,21.60
2022-10-25T10:22:50.778Z,25.10
2022-10-25T10:23:55.216Z,25.10
2022-10-25T10:26:20.646Z,24.80
2022-10-25T10:27:26.019Z,26.40
2022-10-25T10:28:28.261Z,24.70
2022-10-25T10:29:32.247Z,23.70
2022-10-25T10:30:34.500Z,21.90
2022-10-25T10:31:38.439Z,26.80
2022-10-25T10:33:47.880Z,26.20
2022-10-25T10:36:28.584Z,27.20
2022-10-25T10:37:31.679Z,27.90
2022-10-25T10:38:33.955Z,25.70
2022-10-25T10:39:37.205Z,25.10
2022-10-25T10:40:40.508Z,26.70
2022-10-25T10:43:30.584Z,29.00
2022-10-25T10:44:32.861Z,27.80
2022-10-25T10:45:35.974Z,23.30
2022-10-25T10:47:57.456Z,24.40
2022-10-25T10:48:59.627Z,24.60
2022-10-25T10:50:04.294Z,21.60
2022-10-25T10:51:15.384Z,23.30
2022-10-25T10:53:44.566Z,21.60
2022-10-25T10:54:47.104Z,22.90
2022-10-25T10:55:50.908Z,18.70
2022-10-25T10:56:58.830Z,24.10
2022-10-25T10:59:34.356Z,20.70
2022-10-25T11:00:36.618Z,20.40
2022-10-25T11:01:39.468Z,19.30
2022-10-25T11:02:42.029Z,21.10
2022-10-25T11:03:59.032Z,23.91
2022-10-25T11:04:56.367Z,25.30
2022-10-25T11:05:59.346Z,23.60
2022-10-25T11:07:20.563Z,20.00
2022-10-25T11:08:23.265Z,24.00
2022-10-25T11:09:25.593Z,21.18
2022-10-25T11:11:44.799Z,22.40
2022-10-25T11:13:08.895Z,21.70
2022-10-25T11:14:12.741Z,23.20
2022-10-25T11:15:15.258Z,23.80
2022-10-25T11:16:30.448Z,21.20
2022-10-25T11:17:32.900Z,24.10
2022-10-25T11:18:41.836Z,21.10
2022-10-25T11:21:52.057Z,21.80
2022-10-25T11:23:00.007Z,24.10
2022-10-25T11:24:08.976Z,20.80
2022-10-25T11:25:30.271Z,24.20
2022-10-25T11:26:57.384Z,25.20
2022-10-25T11:28:25.721Z,21.10
2022-10-25T11:29:50.137Z,24.40
2022-10-25T11:32:51.190Z,23.60
2022-10-25T11:34:09.844Z,27.10
2022-10-25T11:35:19.371Z,19.40
2022-10-25T11:36:43.770Z,29.80
2022-10-25T11:37:50.230Z,25.30
2022-10-25T11:38:56.408Z,29.90
2022-10-25T11:40:19.524Z,29.20
2022-10-25T11:41:31.780Z,28.90
2022-10-25T11:42:43.654Z,28.50
2022-10-25T11:43:58.811Z,29.60
2022-10-25T11:45:20.204Z,30.40
2022-10-25T11:46:44.731Z,28.20
2022-10-25T11:47:54.139Z,30.00
2022-10-25T11:49:09.226Z,29.10
2022-10-25T11:50:15.748Z,29.30
2022-10-25T11:53:04.629Z,27.90
2022-10-25T11:55:41.803Z,30.70
2022-10-25T11:57:14.092Z,31.90
2022-10-25T11:58:36.103Z,28.40
2022-10-25T12:00:10.972Z,29.90
2022-10-25T12:01:22.711Z,30.60
2022-10-25T12:02:53.152Z,28.90
2022-10-25T12:04:15.904Z,29.20
2022-10-25T12:05:28.098Z,28.40
2022-10-25T12:06:36.988Z,33.10
2022-10-25T12:08:01.867Z,28.60
2022-10-25T12:09:06.959Z,23.50
2022-10-25T12:10:31.638Z,29.30
2022-10-25T12:11:43.432Z,28.10
2022-10-25T12:12:48.432Z,27.90
2022-10-25T12:13:52.731Z,24.40
2022-10-25T12:14:57.275Z,18.10
2022-10-25T12:16:00.334Z,23.30
2022-10-25T12:17:04.944Z,25.60
2022-10-25T12:18:13.719Z,27.90
2022-10-25T12:21:42.823Z,24.50
2022-10-25T12:24:01.024Z,27.80
2022-10-25T12:25:10.958Z,25.30
2022-10-25T12:26:34.733Z,25.70
2022-10-25T12:27:36.878Z,22.80
2022-10-25T12:28:42.732Z,25.80
2022-10-25T12:29:50.589Z,25.70
2022-10-25T12:31:04.137Z,22.00
2022-10-25T12:32:13.400Z,26.90
2022-10-25T12:33:38.519Z,29.80
2022-10-25T12:36:01.200Z,21.70
2022-10-25T12:38:39.254Z,26.50
2022-10-25T12:39:42.853Z,26.80
2022-10-25T12:40:46.449Z,26.00
2022-10-25T12:41:58.055Z,29.70
2022-10-25T12:46:15.664Z,25.80
2022-10-25T12:47:45.240Z,28.70
2022-10-25T12:49:06.962Z,28.20
2022-10-25T12:51:37.896Z,30.70
2022-10-25T12:52:43.473Z,27.50
2022-10-25T12:54:07.320Z,23.90
2022-10-25T12:55:43.848Z,26.00
2022-10-25T12:56:53.623Z,29.20
2022-10-25T12:58:11.713Z,28.00
2022-10-25T12:59:40.357Z,30.70
2022-10-25T13:02:10.769Z,28.70
2022-10-25T13:03:19.839Z,27.90
2022-10-25T13:04:28.334Z,25.10
2022-10-25T13:05:51.074Z,26.20
2022-10-25T13:06:53.335Z,26.00
2022-10-25T13:07:57.688Z,23.90
2022-10-25T13:09:06.552Z,17.60
2022-10-25T17:53:24.101Z,50.30
2022-10-25T17:54:26.582Z,47.10
2022-10-25T17:55:33.075Z,52.10
2022-10-25T17:56:33.945Z,51.10
2022-10-25T17:57:37.142Z,45.60
2022-10-25T17:58:58.487Z,50.50
2022-10-25T18:00:01.807Z,46.90
2022-10-25T18:01:05.929Z,45.80
2022-10-25T18:02:10.465Z,42.80
2022-10-25T18:03:12.775Z,48.10
2022-10-25T18:04:14.929Z,45.50
2022-10-25T18:05:20.895Z,46.70
2022-10-25T18:06:24.093Z,47.00
2022-10-25T18:07:28.893Z,48.40
2022-10-25T18:08:31.453Z,43.90
2022-10-25T18:09:33.678Z,48.45
2022-10-25T18:10:36.441Z,45.30
2022-10-25T18:38:26.786Z,32.70
2022-10-25T18:39:29.947Z,46.70
2022-10-25T18:40:33.493Z,45.70
2022-10-25T18:41:38.449Z,45.30
2022-10-25T18:42:41.331Z,38.70
2022-10-25T18:43:44.671Z,44.50
2022-10-25T18:44:47.713Z,39.60
2022-10-25T18:45:58.463Z,40.60
2022-10-25T18:47:01.099Z,42.80
2022-10-25T18:48:05.073Z,47.20
2022-10-25T18:49:07.652Z,42.70
2022-10-25T18:50:12.037Z,43.20
2022-10-25T18:51:14.255Z,44.64
2022-10-25T18:52:17.342Z,42.60
2022-10-25T18:53:20.559Z,43.50
2022-10-25T18:54:22.735Z,37.60
2022-10-25T18:55:26.953Z,45.40
2022-10-25T18:56:30.803Z,36.30
2022-10-25T18:57:33.530Z,44.50
2022-10-25T18:58:35.713Z,39.60
2022-10-25T18:59:39.008Z,37.90
2022-10-25T19:00:42.483Z,46.50
2022-10-25T19:01:44.881Z,43.20
2022-10-25T19:02:51.460Z,42.00
2022-10-25T19:03:55.790Z,41.40
2022-10-25T19:04:58.619Z,42.10
2022-10-25T19:06:01.187Z,32.50
2022-10-25T19:07:04.847Z,41.20
2022-10-25T19:08:07.944Z,44.91
2022-10-25T19:09:10.502Z,42.80
2022-10-25T19:10:13.552Z,38.50
2022-10-25T19:11:16.274Z,38.40
2022-10-25T19:12:19.239Z,40.50
2022-10-25T19:13:21.678Z,44.64
2022-10-25T19:14:24.327Z,44.40
2022-10-25T19:15:26.586Z,48.60
2022-10-25T19:16:28.925Z,47.50
2022-10-25T19:17:31.925Z,48.40
2022-10-25T19:18:35.387Z,45.20
2022-10-25T19:19:38.072Z,46.40
2022-10-25T19:20:44.080Z,43.30
2022-10-25T19:21:45.816Z,47.10
2022-10-25T19:22:49.102Z,45.55
2022-10-25T19:23:51.912Z,49.40
2022-10-25T19:24:55.178Z,44.80
2022-10-25T19:25:59.257Z,47.50
2022-10-25T19:27:04.111Z,49.40
2022-10-25T19:28:07.129Z,46.40
2022-10-25T19:29:09.385Z,46.82
2022-10-25T19:30:12.888Z,47.91
2022-10-25T19:31:16.751Z,48.82
2022-10-25T19:32:19.158Z,47.70
2022-10-25T19:33:27.691Z,48.20
2022-10-25T19:34:48.786Z,43.50
2022-10-25T19:35:51.373Z,46.60
2022-10-25T19:36:59.497Z,52.30
2022-10-25T19:38:02.739Z,49.50
2022-10-25T19:39:05.753Z,50.10
2022-10-25T19:40:09.973Z,41.50
2022-10-25T19:41:19.621Z,47.10
2022-10-25T19:42:21.944Z,48.10
2022-10-25T19:43:24.392Z,49.20
2022-10-25T19:44:27.839Z,45.20
2022-10-25T19:45:29.914Z,43.50
2022-10-25T19:46:33.171Z,44.60
2022-10-25T19:47:36.279Z,48.70
2022-10-25T19:48:38.643Z,42.70
2022-10-25T19:49:40.829Z,46.60
2022-10-25T19:50:44.421Z,50.10
2022-10-25T19:51:47.832Z,47.20
2022-10-25T19:52:51.222Z,43.30
2022-10-25T19:53:53.727Z,49.40
2022-10-25T19:54:56.621Z,51.70
2022-10-25T19:56:02.406Z,47.60
2022-10-25T19:57:04.957Z,44.00
2022-10-25T19:58:08.079Z,45.80
2022-10-25T19:59:11.487Z,46.70
2022-10-25T20:00:16.985Z,47.00
2022-10-25T20:02:35.230Z,46.00
2022-10-25T20:03:37.922Z,44.00
2022-10-25T20:04:40.694Z,49.90
2022-10-25T20:05:43.311Z,38.50
2022-10-25T20:06:46.676Z,45.64
2022-10-25T20:07:50.206Z,47.30
2022-10-25T20:08:53.887Z,43.20
2022-10-25T20:09:57.207Z,42.18
2022-10-25T20:11:00.474Z,45.10
2022-10-25T20:12:03.350Z,43.18
2022-10-25T20:13:05.481Z,43.00
2022-10-25T20:14:08.003Z,42.70
2022-10-25T20:16:15.846Z,47.10
2022-10-25T20:17:19.190Z,38.20
2022-10-25T20:18:23.958Z,46.90
2022-10-25T20:19:26.687Z,43.60
2022-10-25T20:20:29.100Z,45.27
2022-10-25T20:21:33.462Z,45.40
2022-10-25T20:22:35.729Z,41.30
2022-10-25T20:23:39.331Z,46.00
2022-10-25T20:24:42.521Z,44.40
2022-10-25T20:25:46.344Z,45.40
2022-10-25T20:26:49.886Z,45.45
2022-10-25T20:27:53.145Z,42.30